Caddo, Oklahoma
Current Conditions -  °F | °C
As of 10:35 PM on Saturday 25 Oct 2014 (Local Time) from KDUA Reporting Station
Clear Clear  
Wind Chill: 70°   Ceiling: Unl
Heat Index: 70°   Visibility: 10mi
Dew Point: 63°   Wind: 7mph
Humidity: 78%   Direction: 200°SSW
Pressure: 30.05"   Gusts: NA
Location:  34.13°N, 96.26°W
Report Text: KDUA 260335Z AUTO 20006KT 10SM CLR 21/17 A3005 RMK AO2
Loading
Personal Weather Stations






























Interactive Weather Map
Tropical Storm Tracking
New forecast layout! Learn more

10-Day Weather Forecast

Advertisements
Track Severe Weather on mobile